Summerford, Canada
Current Conditions -  °F | °C
As of 9:20 PM on Wednesday 28 Jan 2015 (Local Time) from CYQX Reporting Station
Freezing Rain Freezing Rain  
Wind Chill: 26°   Ceiling: 100
Heat Index: 32°   Visibility: 0.12mi
Dew Point: 32°   Wind: 7mph
Humidity: 100%   Direction: 60°ENE
Pressure: 29.71"   Gusts: NA
Location:  49.48°N, 54.83°W
Report Text: CYQX 290020Z 06006KT 1/8SM R03/2800V4000FT/D R13/3000FT/D -FZRA FZFG VV001 M00/M00 A2971 RMK FG8 PRESFR SLP067
Loading
Personal Weather Stations






























Interactive Weather Map New forecast layout! Learn more

10-Day Weather Forecast

Advertisements
Track Severe Weather on mobile